Time;durP1;ratioP1;P1;durP2;ratioP2;P2;SDS_P1;SDS_P2;PMS_P1;PMS_P2;Temp;Humidity;BMP_temperature;BMP_pressure;BME280_temperature;BME280_humidity;BME280_pressure;Samples;Min_cycle;Max_cycle;Signal;HPM_P1;HPM_P2
2021/12/15 00:02:19;;;;;;;24.20;12.05;;;8.20;96.50;;;;;;5043379;28;20528;-70
2021/12/15 00:04:50;;;;;;;24.65;13.02;;;8.20;96.60;;;;;;5042828;28;20033;-70
2021/12/15 00:07:21;;;;;;;25.48;12.52;;;8.20;96.80;;;;;;5044707;28;20458;-70
2021/12/15 00:09:47;;;;;;;;;;;8.20;96.70;;;;;;5032480;28;20106;-70
2021/12/15 00:12:14;;;;;;;27.20;13.02;;;8.20;96.60;;;;;;5034906;28;19996;-70
2021/12/15 00:14:41;;;;;;;26.92;13.20;;;8.20;96.80;;;;;;5043829;28;20034;-69
2021/12/15 00:17:07;;;;;;;27.02;13.43;;;8.20;97.00;;;;;;5043490;28;20103;-70
2021/12/15 00:19:33;;;;;;;29.90;14.93;;;8.20;97.20;;;;;;5048356;28;20493;-69
2021/12/15 00:22:00;;;;;;;32.22;15.38;;;8.20;97.20;;;;;;5036007;28;20027;-69
2021/12/15 00:24:27;;;;;;;34.15;15.80;;;8.20;97.30;;;;;;5031382;28;20079;-69
2021/12/15 00:26:56;;;;;;;37.80;15.88;;;8.20;97.30;;;;;;5045926;28;20025;-69
2021/12/15 00:29:23;;;;;;;35.35;16.08;;;8.20;97.30;;;;;;5047744;28;20033;-70
2021/12/15 00:31:50;;;;;;;33.55;16.35;;;8.20;97.40;;;;;;5042240;28;20056;-69
2021/12/15 00:34:17;;;;;;;35.55;16.52;;;8.30;97.50;;;;;;5047863;28;20017;-69
2021/12/15 00:36:45;;;;;;;38.25;16.65;;;8.30;97.50;;;;;;5047154;28;20028;-69
2021/12/15 00:39:16;;;;;;;32.17;15.85;;;8.30;97.60;;;;;;5061206;28;20044;-69
2021/12/15 00:41:42;;;;;;;31.75;15.35;;;8.30;97.60;;;;;;5039591;28;20459;-69
2021/12/15 00:44:09;;;;;;;32.42;14.07;;;8.30;97.60;;;;;;5049074;28;20064;-70
2021/12/15 00:46:35;;;;;;;28.90;13.98;;;8.30;97.60;;;;;;5046801;28;20484;-69
2021/12/15 00:49:02;;;;;;;26.02;14.15;;;8.30;97.20;;;;;;5039425;28;20032;-69
2021/12/15 00:51:27;;;;;;;26.58;13.57;;;8.30;97.10;;;;;;5039409;28;20033;-69
2021/12/15 00:53:54;;;;;;;28.55;13.98;;;8.30;96.90;;;;;;5048998;28;20337;-69
2021/12/15 00:56:19;;;;;;;24.02;12.85;;;8.30;96.60;;;;;;5049367;28;20037;-70
2021/12/15 00:58:45;;;;;;;23.35;11.60;;;8.30;96.20;;;;;;5047490;28;20120;-69
2021/12/15 01:01:11;;;;;;;20.08;9.98;;;8.30;96.00;;;;;;5045424;28;20029;-69
2021/12/15 01:03:38;;;;;;;16.85;8.88;;;8.30;96.10;;;;;;5049729;28;20021;-69
2021/12/15 01:06:09;;;;;;;20.05;10.77;;;8.30;95.80;;;;;;5048646;28;20025;-69
2021/12/15 01:08:46;;;;;;;22.05;11.50;;;8.30;95.70;;;;;;5052078;28;20025;-69
2021/12/15 01:22:06;;;;;;;25.85;13.20;;;8.30;96.40;;;;;;5033484;28;20029;-70
2021/12/15 01:24:33;;;;;;;25.75;12.57;;;8.30;96.00;;;;;;5051026;28;20026;-69
2021/12/15 01:26:59;;;;;;;21.17;11.85;;;8.30;96.10;;;;;;5048869;28;20029;-69
2021/12/15 01:29:24;;;;;;;22.55;11.15;;;8.30;96.00;;;;;;5040747;28;20026;-70
2021/12/15 01:31:50;;;;;;;19.80;11.05;;;8.30;96.00;;;;;;5046957;28;20032;-69
2021/12/15 01:34:16;;;;;;;21.38;10.65;;;8.30;95.80;;;;;;5051493;28;20399;-69
2021/12/15 01:36:42;;;;;;;18.20;9.85;;;8.30;95.60;;;;;;5048102;28;20028;-69
2021/12/15 01:39:09;;;;;;;25.88;11.68;;;8.30;95.50;;;;;;5068628;28;20037;-69
2021/12/15 01:41:35;;;;;;;17.45;9.60;;;8.30;95.20;;;;;;5038558;28;20025;-69
2021/12/15 01:46:54;;;;;;;19.08;10.73;;;8.30;95.20;;;;;;5044548;28;20022;-69
2021/12/15 01:49:31;;;;;;;18.35;9.50;;;8.20;95.00;;;;;;5039960;28;20401;-69
2021/12/15 01:52:00;;;;;;;17.77;9.43;;;8.20;95.20;;;;;;5060155;28;20103;-69
2021/12/15 01:54:29;;;;;;;24.38;13.55;;;8.20;95.20;;;;;;5036179;28;20147;-70
2021/12/15 01:56:56;;;;;;;22.05;11.57;;;8.20;95.40;;;;;;5040899;28;20128;-69
2021/12/15 01:59:24;;;;;;;22.30;12.50;;;8.20;95.80;;;;;;5043199;28;20167;-69
2021/12/15 02:01:50;;;;;;;19.90;10.18;;;8.20;95.40;;;;;;5042027;28;20014;-68
2021/12/15 02:04:18;;;;;;;20.73;11.95;;;8.20;95.50;;;;;;5048574;28;20037;-69
2021/12/15 02:06:46;;;;;;;22.23;12.52;;;8.20;95.30;;;;;;5044665;28;20021;-69
2021/12/15 02:09:20;;;;;;;19.45;10.55;;;8.20;95.40;;;;;;5051156;28;20652;-69
2021/12/15 02:11:46;;;;;;;18.58;9.13;;;8.20;95.50;;;;;;5050204;28;20028;-69
2021/12/15 02:14:12;;;;;;;18.20;9.93;;;8.20;95.40;;;;;;5053268;28;20028;-69
2021/12/15 02:16:38;;;;;;;23.20;11.23;;;8.20;95.30;;;;;;5048699;28;20024;-69
2021/12/15 02:19:03;;;;;;;20.67;11.57;;;8.20;95.30;;;;;;5050578;28;20151;-69
2021/12/15 02:21:29;;;;;;;23.00;11.55;;;8.10;95.30;;;;;;5051227;28;20378;-69
2021/12/15 02:23:58;;;;;;;23.58;12.27;;;8.10;95.40;;;;;;5058412;28;20024;-69
2021/12/15 02:26:35;;;;;;;23.00;12.40;;;8.10;95.40;;;;;;5038945;28;20025;-69
2021/12/15 02:29:03;;;;;;;25.15;13.85;;;8.10;95.50;;;;;;5043428;28;20025;-69
2021/12/15 02:39:39;;;;;;;20.42;11.68;;;8.10;95.50;;;;;;5051471;28;20070;-69
2021/12/15 02:42:06;;;;;;;23.50;11.75;;;8.10;95.40;;;;;;5046414;28;20024;-69
2021/12/15 02:44:32;;;;;;;21.13;12.10;;;8.10;95.30;;;;;;5037022;28;20064;-69
2021/12/15 02:46:58;;;;;;;26.23;13.68;;;8.10;95.40;;;;;;5042170;28;20036;-69
2021/12/15 02:49:27;;;;;;;27.83;13.65;;;8.10;95.50;;;;;;5047531;28;20415;-69
2021/12/15 02:51:59;;;;;;;27.77;14.55;;;8.10;95.50;;;;;;5050612;28;20392;-69
2021/12/15 02:54:26;;;;;;;31.35;15.40;;;8.10;95.60;;;;;;5051705;28;20043;-69
2021/12/15 02:56:53;;;;;;;29.10;14.73;;;8.10;95.60;;;;;;5042106;28;20037;-70
2021/12/15 02:59:30;;;;;;;27.70;14.20;;;8.10;95.70;;;;;;5050335;28;20040;-69
2021/12/15 03:04:44;;;;;;;25.65;13.75;;;8.10;95.50;;;;;;5052916;28;20029;-69
2021/12/15 03:15:32;;;;;;;36.08;16.95;;;8.00;95.60;;;;;;5047813;28;20091;-69
2021/12/15 03:18:04;;;;;;;34.65;17.50;;;8.10;95.70;;;;;;5050152;28;20039;-69
2021/12/15 03:20:40;;;;;;;32.33;15.63;;;8.10;96.00;;;;;;5037311;28;20072;-69
2021/12/15 03:23:09;;;;;;;34.25;17.58;;;8.10;96.00;;;;;;5035211;28;20029;-69
2021/12/15 03:25:35;;;;;;;33.53;16.40;;;8.10;96.00;;;;;;5035887;28;20021;-69
2021/12/15 03:33:55;;;;;;;30.48;14.27;;;8.10;95.70;;;;;;5060510;28;20051;-69
2021/12/15 03:36:39;;;;;;;34.05;17.48;;;8.10;95.60;;;;;;5046915;28;20025;-69
2021/12/15 03:39:09;;;;;;;31.67;16.65;;;8.10;95.60;;;;;;5049426;28;20036;-69
2021/12/15 03:41:36;;;;;;;35.53;17.80;;;8.10;95.30;;;;;;5044449;28;20025;-69
2021/12/15 03:44:05;;;;;;;29.52;15.40;;;8.10;95.40;;;;;;5037207;28;20072;-69
2021/12/15 03:46:31;;;;;;;33.03;17.48;;;8.00;95.40;;;;;;5046572;28;20112;-68
2021/12/15 03:48:57;;;;;;;37.88;18.63;;;8.10;95.40;;;;;;5051953;28;20150;-69
2021/12/15 03:51:23;;;;;;;33.42;17.67;;;8.10;95.60;;;;;;5046770;28;20373;-69
2021/12/15 03:53:49;;;;;;;33.47;15.45;;;8.10;95.70;;;;;;5057945;28;20028;-68
2021/12/15 03:56:16;;;;;;;35.13;17.63;;;8.10;95.70;;;;;;5040662;28;20048;-69
2021/12/15 03:58:42;;;;;;;37.63;18.00;;;8.00;95.30;;;;;;5041351;28;20029;-69
2021/12/15 04:01:17;;;;;;;31.20;16.65;;;8.00;95.30;;;;;;5045758;28;20021;-69
2021/12/15 04:03:47;;;;;;;29.17;15.48;;;8.00;95.30;;;;;;5061506;28;20472;-69
2021/12/15 04:06:20;;;;;;;21.37;11.57;;;8.00;95.10;;;;;;5049157;28;20104;-69
2021/12/15 04:08:46;;;;;;;32.53;16.73;;;8.00;95.20;;;;;;5049537;28;20116;-69
2021/12/15 04:11:15;;;;;;;25.88;13.50;;;8.00;95.10;;;;;;5045745;28;20025;-69
2021/12/15 04:13:42;;;;;;;28.05;14.68;;;7.90;95.20;;;;;;5051950;28;20021;-69
2021/12/15 04:16:15;;;;;;;30.88;16.02;;;7.90;95.20;;;;;;5046928;28;20059;-69
2021/12/15 04:18:41;;;;;;;30.67;17.20;;;7.90;95.40;;;;;;5055266;28;20048;-69
2021/12/15 04:21:07;;;;;;;29.92;14.80;;;7.90;95.40;;;;;;5046129;28;20056;-69
2021/12/15 04:23:33;;;;;;;31.45;15.52;;;7.90;95.40;;;;;;5044007;28;20029;-69
2021/12/15 04:25:59;;;;;;;27.83;14.80;;;7.90;95.40;;;;;;5045153;28;20045;-69
2021/12/15 04:28:31;;;;;;;32.15;16.30;;;7.90;95.30;;;;;;5054432;28;20435;-70
2021/12/15 04:31:00;;;;;;;30.13;12.75;;;7.90;95.20;;;;;;5050217;28;20026;-69
2021/12/15 04:33:31;;;;;;;29.23;16.50;;;7.90;95.30;;;;;;5051570;28;20444;-69
2021/12/15 04:35:59;;;;;;;33.30;16.15;;;7.90;95.30;;;;;;5056500;28;20033;-69
2021/12/15 04:38:27;;;;;;;37.10;18.48;;;7.90;95.50;;;;;;5042380;28;20120;-69
2021/12/15 04:40:54;;;;;;;29.33;17.10;;;7.90;95.60;;;;;;5038637;28;20112;-69
2021/12/15 04:43:20;;;;;;;34.25;17.55;;;7.90;95.50;;;;;;5051351;28;20033;-69
2021/12/15 04:45:46;;;;;;;33.63;17.77;;;7.90;95.70;;;;;;5050191;28;20033;-69
2021/12/15 04:48:14;;;;;;;32.85;18.23;;;7.90;95.90;;;;;;5063475;28;20032;-69
2021/12/15 04:50:41;;;;;;;38.17;19.48;;;7.90;96.00;;;;;;5050645;28;20052;-69
2021/12/15 04:53:08;;;;;;;35.45;19.27;;;7.90;96.00;;;;;;5045625;28;20029;-69
2021/12/15 04:55:36;;;;;;;34.80;18.30;;;7.90;95.90;;;;;;5053127;28;20391;-69
2021/12/15 04:58:05;;;;;;;36.22;18.90;;;7.90;95.90;;;;;;5043870;28;20061;-69
2021/12/15 05:00:34;;;;;;;37.72;18.25;;;7.90;96.00;;;;;;5038657;28;20032;-69
2021/12/15 05:03:00;;;;;;;38.05;18.92;;;7.90;95.90;;;;;;5052792;28;20016;-69
2021/12/15 05:05:28;;;;;;;33.65;18.02;;;7.90;95.50;;;;;;5047339;28;20055;-69
2021/12/15 05:07:55;;;;;;;33.35;18.13;;;7.90;95.40;;;;;;5045106;28;20025;-69
2021/12/15 05:10:22;;;;;;;36.47;17.55;;;7.90;95.50;;;;;;5047676;28;20029;-70
2021/12/15 05:12:48;;;;;;;35.30;18.95;;;7.90;95.50;;;;;;5050990;28;20032;-71
2021/12/15 05:15:14;;;;;;;40.47;19.30;;;7.90;95.60;;;;;;5048947;28;20071;-69
2021/12/15 05:17:40;;;;;;;35.72;19.08;;;7.90;95.80;;;;;;5047725;28;20029;-70
2021/12/15 05:20:08;;;;;;;38.55;20.00;;;7.90;95.90;;;;;;5050071;28;20044;-69
2021/12/15 05:22:35;;;;;;;33.83;18.70;;;7.90;96.00;;;;;;5038177;28;20045;-69
2021/12/15 05:25:04;;;;;;;33.47;17.48;;;7.90;96.20;;;;;;5041397;28;20072;-69
2021/12/15 05:27:29;;;;;;;34.88;18.27;;;7.90;96.20;;;;;;5050529;28;20029;-70
2021/12/15 05:29:57;;;;;;;32.05;16.17;;;7.90;96.30;;;;;;5044466;28;20087;-69
2021/12/15 05:32:24;;;;;;;32.63;17.60;;;7.90;96.20;;;;;;5044119;28;20033;-69
2021/12/15 05:34:54;;;;;;;31.25;16.13;;;7.90;96.20;;;;;;5045634;28;20037;-70
2021/12/15 05:37:22;;;;;;;33.22;16.45;;;7.90;95.90;;;;;;5042919;28;20091;-70
2021/12/15 05:39:49;;;;;;;27.98;15.90;;;7.90;95.90;;;;;;5048194;28;20508;-69
2021/12/15 05:42:17;;;;;;;31.05;17.05;;;7.90;95.90;;;;;;5051259;28;20020;-69
2021/12/15 05:44:43;;;;;;;34.22;16.52;;;7.90;95.90;;;;;;5049686;28;20021;-69
2021/12/15 05:47:10;;;;;;;31.80;16.42;;;7.90;96.00;;;;;;5048914;28;20029;-68
2021/12/15 05:49:36;;;;;;;25.02;13.55;;;7.90;96.20;;;;;;5051728;28;20033;-69
2021/12/15 05:52:04;;;;;;;29.05;15.73;;;7.90;95.90;;;;;;5043640;28;20029;-71
2021/12/15 05:54:30;;;;;;;28.35;15.55;;;7.90;95.70;;;;;;5040612;28;20468;-70
2021/12/15 05:56:57;;;;;;;30.10;15.13;;;7.90;95.60;;;;;;5039656;28;20132;-70
2021/12/15 05:59:24;;;;;;;27.50;14.40;;;7.90;95.70;;;;;;5040227;28;20025;-70
2021/12/15 06:01:50;;;;;;;24.13;11.90;;;7.90;95.70;;;;;;5043688;28;20024;-69
2021/12/15 06:04:16;;;;;;;26.25;13.25;;;7.90;95.50;;;;;;5046167;28;20024;-70
2021/12/15 06:06:42;;;;;;;30.75;14.48;;;7.90;95.40;;;;;;5051993;28;20029;-69
2021/12/15 06:09:10;;;;;;;25.15;12.68;;;7.80;95.40;;;;;;5045052;28;20062;-71
2021/12/15 06:11:39;;;;;;;27.50;14.15;;;7.80;95.40;;;;;;5049800;28;20111;-70
2021/12/15 06:14:05;;;;;;;26.70;14.13;;;7.80;95.40;;;;;;5044384;28;20055;-69
2021/12/15 06:16:31;;;;;;;28.73;15.10;;;7.80;95.40;;;;;;5033071;28;20120;-70
2021/12/15 06:18:57;;;;;;;28.23;14.43;;;7.80;95.40;;;;;;5040407;28;20149;-67
2021/12/15 06:21:24;;;;;;;29.08;14.27;;;7.80;95.50;;;;;;5049482;28;20033;-70
2021/12/15 06:23:50;;;;;;;30.70;15.43;;;7.80;95.60;;;;;;5051756;28;20032;-69
2021/12/15 06:26:18;;;;;;;23.45;12.07;;;7.80;95.70;;;;;;5049439;28;20028;-69
2021/12/15 06:28:45;;;;;;;30.73;14.52;;;7.80;95.70;;;;;;5058294;28;20029;-69
2021/12/15 06:31:12;;;;;;;28.35;14.95;;;7.80;95.50;;;;;;5042969;28;20074;-69
2021/12/15 06:33:39;;;;;;;31.65;15.68;;;7.80;95.70;;;;;;5045537;28;20032;-69
2021/12/15 06:36:06;;;;;;;28.58;15.35;;;7.80;95.70;;;;;;5045012;28;20027;-70
2021/12/15 06:38:36;;;;;;;30.63;16.10;;;7.80;95.80;;;;;;5045539;28;20389;-69
2021/12/15 06:41:05;;;;;;;29.33;15.60;;;7.80;95.80;;;;;;5049165;28;20113;-69
2021/12/15 06:43:31;;;;;;;31.27;15.50;;;7.80;95.80;;;;;;5055921;28;20112;-69
2021/12/15 06:58:51;;;;;;;27.13;14.30;;;7.80;95.80;;;;;;5043955;28;20040;-71
2021/12/15 07:01:17;;;;;;;26.42;14.32;;;7.80;95.90;;;;;;5044207;28;20029;-71
2021/12/15 07:03:43;;;;;;;61.67;28.08;;;7.80;95.90;;;;;;5043721;28;20500;-71
2021/12/15 07:06:09;;;;;;;26.90;13.73;;;7.80;95.90;;;;;;5047509;28;20131;-71
2021/12/15 07:08:36;;;;;;;27.30;14.27;;;7.80;95.80;;;;;;5042931;28;20029;-71
2021/12/15 07:11:04;;;;;;;28.58;14.05;;;7.80;95.70;;;;;;5043111;28;20090;-71
2021/12/15 07:13:30;;;;;;;27.48;14.43;;;7.80;95.70;;;;;;5043515;28;20139;-71
2021/12/15 07:16:03;;;;;;;28.63;15.27;;;7.80;95.60;;;;;;5043324;28;20028;-70
2021/12/15 07:18:41;;;;;;;28.48;13.73;;;7.80;95.70;;;;;;5044304;28;20111;-71
2021/12/15 07:21:11;;;;;;;25.08;12.27;;;7.70;95.70;;;;;;5043344;28;20488;-70
2021/12/15 07:23:37;;;;;;;19.97;10.77;;;7.80;95.60;;;;;;5045100;28;20507;-71
2021/12/15 07:26:04;;;;;;;24.65;12.80;;;7.70;95.40;;;;;;5041713;28;20310;-71
2021/12/15 07:28:30;;;;;;;23.85;11.85;;;7.70;95.30;;;;;;5042843;28;20531;-70
2021/12/15 07:30:56;;;;;;;28.67;14.57;;;7.70;95.50;;;;;;5041881;28;20025;-71
2021/12/15 07:33:22;;;;;;;30.10;15.27;;;7.60;95.60;;;;;;5045860;28;20048;-70
2021/12/15 07:35:48;;;;;;;29.85;14.55;;;7.60;95.80;;;;;;5044876;28;20025;-71
2021/12/15 07:38:14;;;;;;;26.83;13.30;;;7.70;95.80;;;;;;5042760;28;20029;-71
2021/12/15 07:40:40;;;;;;;29.42;15.25;;;7.60;95.70;;;;;;5042697;28;20116;-71
2021/12/15 07:43:12;;;;;;;26.20;13.43;;;7.70;95.70;;;;;;5042531;28;20491;-71
2021/12/15 07:45:52;;;;;;;30.08;14.93;;;7.70;95.80;;;;;;5043156;28;20099;-70
2021/12/15 07:48:20;;;;;;;26.90;14.83;;;7.70;95.70;;;;;;5042363;28;20033;-71
2021/12/15 07:50:49;;;;;;;18.85;10.48;;;7.70;96.10;;;;;;5043511;28;20025;-71
2021/12/15 07:53:16;;;;;;;22.92;11.93;;;7.70;95.70;;;;;;5042292;28;20033;-70
2021/12/15 07:55:42;;;;;;;23.88;12.52;;;7.60;95.60;;;;;;5042528;28;20021;-71
2021/12/15 07:58:09;;;;;;;26.13;12.55;;;7.60;95.50;;;;;;5035909;28;20025;-71
2021/12/15 08:00:37;;;;;;;19.98;10.70;;;7.60;95.50;;;;;;5029548;28;20030;-70
2021/12/15 08:03:05;;;;;;;24.13;12.40;;;7.60;95.40;;;;;;5032636;28;20026;-71
2021/12/15 08:05:31;;;;;;;21.10;11.13;;;7.60;95.40;;;;;;5029075;28;20034;-70
2021/12/15 08:07:57;;;;;;;27.58;14.35;;;7.60;95.40;;;;;;5028248;28;20029;-70
2021/12/15 08:10:23;;;;;;;25.27;14.05;;;7.60;95.50;;;;;;5028815;28;20032;-70
2021/12/15 08:12:49;;;;;;;24.60;12.75;;;7.60;95.50;;;;;;5028946;28;20088;-70
2021/12/15 08:15:17;;;;;;;27.90;14.77;;;7.60;95.40;;;;;;5031941;28;20028;-71
2021/12/15 08:17:48;;;;;;;32.00;15.80;;;7.60;95.30;;;;;;5031591;28;20492;-71
2021/12/15 08:20:15;;;;;;;29.80;14.60;;;7.60;95.30;;;;;;5028931;28;20029;-71
2021/12/15 08:22:41;;;;;;;27.02;13.77;;;7.60;95.30;;;;;;5028818;28;20075;-70
2021/12/15 08:25:09;;;;;;;26.90;14.25;;;7.60;95.40;;;;;;5028200;28;20022;-71
2021/12/15 08:27:36;;;;;;;35.05;15.98;;;7.60;95.40;;;;;;5030051;28;20040;-71
2021/12/15 08:30:04;;;;;;;34.65;16.50;;;7.60;95.50;;;;;;5031415;28;20404;-71
2021/12/15 08:32:30;;;;;;;34.05;16.55;;;7.60;95.60;;;;;;5027762;28;20025;-71
2021/12/15 08:34:56;;;;;;;32.13;16.70;;;7.60;95.70;;;;;;5028725;28;20448;-70
2021/12/15 08:37:21;;;;;;;26.00;14.10;;;7.60;95.70;;;;;;5028454;28;20048;-71
2021/12/15 08:39:47;;;;;;;27.13;14.80;;;7.60;95.80;;;;;;5028095;28;20030;-71
2021/12/15 08:42:14;;;;;;;32.47;16.15;;;7.60;95.80;;;;;;5031279;28;20356;-71
2021/12/15 08:44:40;;;;;;;28.08;13.98;;;7.70;95.70;;;;;;5029155;28;20079;-70
2021/12/15 08:47:07;;;;;;;33.97;15.95;;;7.70;95.60;;;;;;5028779;28;20073;-71
2021/12/15 08:49:33;;;;;;;28.80;15.02;;;7.70;95.50;;;;;;5028205;28;20029;-71
2021/12/15 08:52:00;;;;;;;27.02;13.27;;;7.70;95.40;;;;;;5028384;28;20018;-70
2021/12/15 08:54:25;;;;;;;26.67;13.43;;;7.70;95.20;;;;;;5030791;28;20469;-71
2021/12/15 08:56:53;;;;;;;24.65;12.95;;;7.70;95.10;;;;;;5029727;28;20028;-70
2021/12/15 08:59:19;;;;;;;25.90;13.57;;;7.70;95.20;;;;;;5027772;28;20542;-71
2021/12/15 09:01:46;;;;;;;26.80;13.23;;;7.70;95.20;;;;;;5033117;28;20049;-71
2021/12/15 09:04:14;;;;;;;26.65;13.73;;;7.70;95.20;;;;;;5039758;28;20049;-71
2021/12/15 09:06:41;;;;;;;25.80;13.65;;;7.70;95.10;;;;;;5034421;28;20034;-70
2021/12/15 09:09:09;;;;;;;27.85;13.65;;;7.70;95.20;;;;;;5036526;28;20113;-71
2021/12/15 09:11:36;;;;;;;19.88;10.82;;;7.70;95.20;;;;;;5027832;28;20481;-71
2021/12/15 09:14:03;;;;;;;25.83;13.43;;;7.70;95.10;;;;;;5029936;28;20026;-70
2021/12/15 09:16:32;;;;;;;22.95;12.25;;;7.70;95.20;;;;;;5030711;28;20029;-71
2021/12/15 09:18:59;;;;;;;28.67;13.82;;;7.70;95.20;;;;;;5032626;28;20022;-71
2021/12/15 09:21:27;;;;;;;27.65;14.10;;;7.70;95.20;;;;;;5033804;28;20045;-68
2021/12/15 09:23:54;;;;;;;23.42;12.23;;;7.70;95.30;;;;;;5029993;28;20040;-71
2021/12/15 09:26:21;;;;;;;25.15;13.13;;;7.70;95.10;;;;;;5027719;28;20017;-72
2021/12/15 09:28:48;;;;;;;36.22;18.48;;;7.80;95.30;;;;;;5027200;28;20289;-71
2021/12/15 09:31:15;;;;;;;31.10;13.95;;;7.80;95.30;;;;;;5032664;28;20017;-71
2021/12/15 09:33:46;;;;;;;32.60;15.90;;;7.80;95.40;;;;;;5011914;28;20041;-72
2021/12/15 09:36:15;;;;;;;26.83;13.88;;;7.80;95.40;;;;;;5028565;28;20435;-71
2021/12/15 09:38:42;;;;;;;28.20;14.68;;;7.90;95.30;;;;;;5027810;28;20035;-71
2021/12/15 09:41:13;;;;;;;26.67;13.75;;;7.90;95.30;;;;;;5034214;28;20029;-71
2021/12/15 09:43:40;;;;;;;24.60;12.50;;;7.90;95.10;;;;;;5027944;28;20021;-73
2021/12/15 09:46:15;;;;;;;26.48;14.25;;;7.90;95.00;;;;;;5028611;28;20049;-72
2021/12/15 10:02:36;;;;;;;30.45;16.55;;;8.00;95.00;;;;;;5022473;28;20040;-76
2021/12/15 10:11:11;;;;;;;23.50;12.75;;;8.10;94.80;;;;;;5023419;28;20144;-73
2021/12/15 10:19:27;;;;;;;23.00;12.38;;;8.10;94.40;;;;;;5028248;28;20455;-73
2021/12/15 10:22:23;;;;;;;24.23;13.20;;;8.10;94.20;;;;;;5013327;28;20025;-73
2021/12/15 10:24:52;;;;;;;22.02;12.27;;;8.10;94.20;;;;;;5007047;28;20033;-73
2021/12/15 10:27:49;;;;;;;23.17;13.18;;;8.10;94.10;;;;;;5006818;28;20077;-73
2021/12/15 10:30:28;;;;;;;22.00;12.73;;;8.20;94.20;;;;;;4991309;28;20038;-73
2021/12/15 10:33:01;;;;;;;22.83;12.95;;;8.20;94.10;;;;;;5008417;28;20081;-73
2021/12/15 10:35:32;;;;;;;21.95;11.63;;;8.20;94.20;;;;;;5006938;28;20141;-73
2021/12/15 10:38:17;;;;;;;23.92;12.70;;;8.20;94.10;;;;;;5006547;28;20105;-73
2021/12/15 10:41:05;;;;;;;24.77;13.32;;;8.20;94.10;;;;;;5006682;28;20157;-73
2021/12/15 10:43:39;;;;;;;20.60;12.23;;;8.20;93.90;;;;;;5006725;28;20122;-73
2021/12/15 10:46:18;;;;;;;22.20;12.40;;;8.20;93.90;;;;;;5005808;28;20170;-73
2021/12/15 10:48:49;;;;;;;26.00;14.05;;;8.30;94.10;;;;;;5007298;28;20765;-73
2021/12/15 10:51:39;;;;;;;19.95;11.05;;;8.30;94.00;;;;;;5007701;28;20036;-73
2021/12/15 10:54:11;;;;;;;22.17;12.33;;;8.30;94.30;;;;;;5007913;28;20101;-73
2021/12/15 10:56:41;;;;;;;18.02;10.23;;;8.30;93.90;;;;;;5006355;28;20264;-73
2021/12/15 10:59:12;;;;;;;20.10;11.43;;;8.30;93.80;;;;;;5006868;28;20101;-73
2021/12/15 11:01:41;;;;;;;19.83;10.75;;;8.30;93.80;;;;;;5013087;28;20045;-73
2021/12/15 11:04:28;;;;;;;20.58;11.70;;;8.30;93.80;;;;;;5028310;28;20033;-74
2021/12/15 11:07:15;;;;;;;22.45;12.30;;;8.30;93.60;;;;;;5013798;28;20037;-74
2021/12/15 11:09:54;;;;;;;20.05;12.05;;;8.30;93.70;;;;;;5012752;28;20036;-73
2021/12/15 11:12:31;;;;;;;20.25;11.80;;;8.30;93.80;;;;;;5022624;28;20025;-73
2021/12/15 11:15:04;;;;;;;21.20;12.48;;;8.30;93.60;;;;;;5029855;28;20088;-74
2021/12/15 11:17:34;;;;;;;20.90;12.27;;;8.30;93.70;;;;;;5028328;28;20037;-73
2021/12/15 11:20:32;;;;;;;21.15;11.73;;;8.30;93.80;;;;;;5020850;28;20109;-74
2021/12/15 11:22:58;;;;;;;15.32;7.60;;;8.40;93.80;;;;;;5022413;28;20068;-74
2021/12/15 11:25:37;;;;;;;21.17;13.00;;;8.40;93.60;;;;;;5027429;28;20480;-74
2021/12/15 11:28:13;;;;;;;20.73;12.02;;;8.40;93.60;;;;;;5027856;28;20046;-74
2021/12/15 11:31:13;;;;;;;20.50;11.85;;;8.40;93.60;;;;;;5022575;28;20044;-75
2021/12/15 11:33:45;;;;;;;22.63;12.18;;;8.50;93.40;;;;;;5026220;28;20037;-75
2021/12/15 11:36:17;;;;;;;18.88;10.55;;;8.50;93.40;;;;;;5039763;28;20046;-73
2021/12/15 11:38:44;;;;;;;18.90;11.65;;;8.50;93.40;;;;;;5039567;28;20071;-73
2021/12/15 11:41:20;;;;;;;18.45;10.65;;;8.50;93.40;;;;;;5033455;28;20061;-74
2021/12/15 11:43:48;;;;;;;18.75;10.88;;;8.50;93.70;;;;;;5032732;28;20373;-75
2021/12/15 11:46:37;;;;;;;18.05;10.20;;;8.50;93.30;;;;;;5028518;28;20064;-75
2021/12/15 11:49:17;;;;;;;18.55;10.95;;;8.50;93.30;;;;;;5017735;28;20065;-75
2021/12/15 11:51:50;;;;;;;17.25;9.63;;;8.50;93.00;;;;;;5042338;28;20132;-74
2021/12/15 11:54:25;;;;;;;20.20;11.25;;;8.50;93.30;;;;;;5029938;28;20083;-74
2021/12/15 11:56:56;;;;;;;24.08;14.32;;;8.50;93.10;;;;;;5032282;28;20030;-73
2021/12/15 11:59:26;;;;;;;18.08;10.68;;;8.50;93.40;;;;;;5028222;28;20026;-73
2021/12/15 12:02:02;;;;;;;20.83;12.30;;;8.50;93.60;;;;;;5029159;28;20053;-73
2021/12/15 12:04:46;;;;;;;19.88;11.75;;;8.60;93.40;;;;;;5031524;28;20033;-74
2021/12/15 12:07:26;;;;;;;20.38;12.13;;;8.60;93.10;;;;;;5028445;28;20036;-73
2021/12/15 12:10:06;;;;;;;22.73;13.05;;;8.60;93.00;;;;;;5035320;28;20049;-74
2021/12/15 12:12:39;;;;;;;24.10;13.32;;;8.60;93.30;;;;;;5030251;28;20025;-73
2021/12/15 12:15:08;;;;;;;20.92;13.20;;;8.70;93.40;;;;;;5032748;28;20029;-75
2021/12/15 12:17:38;;;;;;;20.92;12.65;;;8.70;93.60;;;;;;5036628;28;20123;-75
2021/12/15 12:20:07;;;;;;;20.35;11.25;;;8.70;93.40;;;;;;5028646;28;20044;-74
2021/12/15 12:22:35;;;;;;;17.13;10.07;;;8.70;92.90;;;;;;5033691;28;20485;-72
2021/12/15 12:25:10;;;;;;;18.63;11.00;;;8.80;92.90;;;;;;5032535;28;20446;-74
2021/12/15 12:27:37;;;;;;;21.83;11.40;;;8.70;92.60;;;;;;5034538;28;20046;-74
2021/12/15 12:30:11;;;;;;;15.85;9.93;;;8.70;92.50;;;;;;5031482;28;20501;-74
2021/12/15 12:32:38;;;;;;;17.92;9.73;;;8.70;92.30;;;;;;5030697;28;20020;-74
2021/12/15 12:35:07;;;;;;;16.13;10.43;;;8.70;92.60;;;;;;5032469;28;20029;-75
2021/12/15 12:37:34;;;;;;;17.98;10.05;;;8.70;92.30;;;;;;5029404;28;20071;-75
2021/12/15 12:40:08;;;;;;;17.92;11.00;;;8.80;92.60;;;;;;5029270;28;20025;-73
2021/12/15 12:42:38;;;;;;;22.40;12.52;;;8.70;92.30;;;;;;5028861;28;20037;-73
2021/12/15 12:45:11;;;;;;;13.23;8.27;;;8.80;92.50;;;;;;5029522;28;20032;-75
2021/12/15 12:47:45;;;;;;;20.27;11.68;;;8.80;92.10;;;;;;5029715;28;20616;-74
2021/12/15 12:51:02;;;;;;;18.85;11.55;;;8.80;92.10;;;;;;5023619;28;20033;-74
2021/12/15 12:59:26;;;;;;;28.88;21.20;;;8.80;92.70;;;;;;5028917;28;20079;-74
2021/12/15 13:01:52;;;;;;;22.17;14.25;;;8.90;92.90;;;;;;5033075;28;20055;-74
2021/12/15 13:04:18;;;;;;;21.70;13.82;;;8.90;92.90;;;;;;5028329;28;20056;-73
2021/12/15 13:06:45;;;;;;;22.58;13.80;;;9.00;93.10;;;;;;5025718;28;20045;-74
2021/12/15 13:09:17;;;;;;;23.63;13.15;;;9.00;92.80;;;;;;5031459;28;20029;-74
2021/12/15 13:11:49;;;;;;;21.10;11.88;;;9.00;92.70;;;;;;5037258;28;20033;-74
2021/12/15 13:14:34;;;;;;;21.30;12.98;;;9.00;92.20;;;;;;5027983;28;20469;-74
2021/12/15 13:17:07;;;;;;;17.48;10.18;;;9.00;92.10;;;;;;5023868;28;20373;-72
2021/12/15 13:19:40;;;;;;;16.00;10.30;;;9.00;91.90;;;;;;5027370;28;20036;-78
2021/12/15 13:30:57;;;;;;;24.13;16.20;;;8.90;92.90;;;;;;5021954;28;20037;-75
2021/12/15 13:33:37;;;;;;;22.33;14.93;;;8.90;92.90;;;;;;5027637;28;20026;-75
2021/12/15 13:36:14;;;;;;;24.88;17.92;;;9.00;93.00;;;;;;5031468;28;20099;-75
2021/12/15 13:39:04;;;;;;;21.70;13.95;;;8.90;93.20;;;;;;5030424;28;20557;-75
2021/12/15 13:44:04;;;;;;;22.00;14.02;;;9.00;93.20;;;;;;5028580;28;20037;-75
2021/12/15 13:46:35;;;;;;;23.98;15.43;;;9.00;93.10;;;;;;5027202;28;20050;-75
2021/12/15 13:49:01;;;;;;;22.13;13.80;;;9.00;93.30;;;;;;5028002;28;20572;-75
2021/12/15 13:51:53;;;;;;;21.83;13.70;;;9.00;93.00;;;;;;5028833;28;20129;-75
2021/12/15 13:54:35;;;;;;;21.90;13.93;;;9.00;92.90;;;;;;5029672;28;20048;-75
2021/12/15 13:57:13;;;;;;;21.90;14.10;;;9.00;92.40;;;;;;5030429;28;20025;-75
2021/12/15 13:59:42;;;;;;;20.55;13.63;;;9.00;92.80;;;;;;5029053;28;20037;-75
2021/12/15 14:02:26;;;;;;;21.20;12.95;;;9.00;92.90;;;;;;5028416;28;20563;-75
2021/12/15 14:05:02;;;;;;;24.40;14.13;;;9.00;92.30;;;;;;5028454;28;20032;-75
2021/12/15 14:07:31;;;;;;;20.50;12.95;;;8.90;91.90;;;;;;5028431;28;20041;-75
2021/12/15 14:09:59;;;;;;;23.20;14.45;;;8.90;91.90;;;;;;5027209;28;20049;-75
2021/12/15 14:12:58;;;;;;;28.52;16.65;;;8.80;92.20;;;;;;5028921;28;20021;-75
2021/12/15 14:15:28;;;;;;;25.38;15.90;;;8.80;92.40;;;;;;5028326;28;20029;-75
2021/12/15 14:17:56;;;;;;;27.67;16.92;;;8.80;92.60;;;;;;5030325;28;20087;-75
2021/12/15 14:20:22;;;;;;;29.25;16.65;;;8.70;92.70;;;;;;5026596;28;20511;-76
2021/12/15 14:22:55;;;;;;;27.17;17.35;;;8.70;92.90;;;;;;5028192;28;20503;-75
2021/12/15 14:25:21;;;;;;;26.17;16.23;;;8.70;93.20;;;;;;5028348;28;20105;-75
2021/12/15 14:27:46;;;;;;;28.10;17.65;;;8.80;93.10;;;;;;5026658;28;20042;-75